createdAt,value
2018-03-30T00:01:19.640Z,6.18
2018-03-30T00:03:49.078Z,6.16
2018-03-30T00:06:18.365Z,6.15
2018-03-30T00:08:47.929Z,6.11
2018-03-30T00:11:22.586Z,6.01
2018-03-30T00:13:52.010Z,5.93
2018-03-30T00:16:21.265Z,5.91
2018-03-30T00:18:50.595Z,5.75
2018-03-30T00:21:20.059Z,5.69
2018-03-30T00:23:49.350Z,5.68
2018-03-30T00:26:19.127Z,5.67
2018-03-30T00:28:49.806Z,5.66
2018-03-30T00:31:20.520Z,5.65
2018-03-30T00:33:51.256Z,5.60
2018-03-30T00:36:21.728Z,5.61
2018-03-30T00:38:52.788Z,5.61
2018-03-30T00:41:23.762Z,5.60
2018-03-30T00:43:54.879Z,5.59
2018-03-30T00:46:25.742Z,5.40
2018-03-30T00:48:57.274Z,5.52
2018-03-30T00:51:27.797Z,5.48
2018-03-30T00:53:58.491Z,5.47
2018-03-30T00:56:29.126Z,5.45
2018-03-30T00:58:59.732Z,5.42
2018-03-30T01:01:30.742Z,5.40
2018-03-30T01:04:01.799Z,5.36
2018-03-30T01:06:32.673Z,5.33
2018-03-30T01:09:03.816Z,5.30
2018-03-30T01:11:34.659Z,5.27
2018-03-30T01:14:05.141Z,5.23
2018-03-30T01:16:36.670Z,5.23
2018-03-30T01:19:07.737Z,5.15
2018-03-30T01:21:38.449Z,5.20
2018-03-30T01:24:09.547Z,5.16
2018-03-30T01:26:40.537Z,5.14
2018-03-30T01:29:11.556Z,5.11
2018-03-30T01:31:42.068Z,5.08
2018-03-30T01:34:12.768Z,5.05
2018-03-30T01:36:43.708Z,5.03
2018-03-30T01:39:14.821Z,5.04
2018-03-30T01:41:45.855Z,5.02
2018-03-30T01:44:16.889Z,4.95
2018-03-30T01:46:47.382Z,4.93
2018-03-30T01:49:17.949Z,4.92
2018-03-30T01:51:48.347Z,4.91
2018-03-30T01:54:18.876Z,4.90
2018-03-30T01:56:49.695Z,4.89
2018-03-30T01:59:20.758Z,4.88
2018-03-30T02:01:51.674Z,4.87
2018-03-30T02:04:24.479Z,4.85
2018-03-30T02:06:54.272Z,4.85
2018-03-30T02:09:24.807Z,4.84
2018-03-30T02:11:55.753Z,4.83
2018-03-30T02:14:26.848Z,4.82
2018-03-30T02:16:57.741Z,4.79
2018-03-30T02:19:28.815Z,4.76
2018-03-30T02:21:59.732Z,4.70
2018-03-30T02:24:30.834Z,4.73
2018-03-30T02:27:01.690Z,4.70
2018-03-30T02:29:32.385Z,4.70
2018-03-30T02:32:03.175Z,4.67
2018-03-30T02:34:33.903Z,4.66
2018-03-30T02:37:04.745Z,4.65
2018-03-30T02:39:35.769Z,4.62
2018-03-30T02:42:06.649Z,4.62
2018-03-30T02:44:37.807Z,4.56
2018-03-30T02:47:08.719Z,4.55
2018-03-30T02:49:39.819Z,4.54
2018-03-30T02:52:10.761Z,4.52
2018-03-30T02:54:41.859Z,4.29
2018-03-30T02:57:12.700Z,4.46
2018-03-30T02:59:43.839Z,4.44
2018-03-30T03:02:14.774Z,4.44
2018-03-30T03:04:45.464Z,4.42
2018-03-30T03:07:16.148Z,4.41
2018-03-30T03:09:46.811Z,4.39
2018-03-30T03:12:17.719Z,4.37
2018-03-30T03:14:48.776Z,4.36
2018-03-30T03:17:19.702Z,4.35
2018-03-30T03:19:50.755Z,4.32
2018-03-30T03:22:21.703Z,4.29
2018-03-30T03:24:52.399Z,4.29
2018-03-30T03:27:23.064Z,4.28
2018-03-30T03:29:53.804Z,4.26
2018-03-30T03:32:25.085Z,4.25
2018-03-30T03:34:55.162Z,4.24
2018-03-30T03:37:25.770Z,4.21
2018-03-30T03:39:56.850Z,4.18
2018-03-30T03:42:27.648Z,4.17
2018-03-30T03:44:58.795Z,4.16
2018-03-30T03:47:29.442Z,4.14
2018-03-30T03:49:59.979Z,4.13
2018-03-30T03:52:30.749Z,4.11
2018-03-30T03:55:01.761Z,4.08
2018-03-30T03:57:32.799Z,4.06
2018-03-30T04:00:03.467Z,4.06
2018-03-30T04:02:34.280Z,4.04
2018-03-30T04:05:04.884Z,4.01
2018-03-30T04:07:42.816Z,3.99
2018-03-30T04:10:12.186Z,3.95
2018-03-30T04:12:41.466Z,3.91
2018-03-30T04:15:10.879Z,3.88
2018-03-30T04:17:40.191Z,3.82
2018-03-30T04:20:09.458Z,3.78
2018-03-30T04:22:40.116Z,3.73
2018-03-30T04:25:10.881Z,3.67
2018-03-30T04:27:41.772Z,3.59
2018-03-30T04:30:12.790Z,3.55
2018-03-30T04:32:43.762Z,3.52
2018-03-30T04:35:15.129Z,3.52
2018-03-30T04:37:45.848Z,3.50
2018-03-30T04:40:16.762Z,3.47
2018-03-30T04:42:47.766Z,3.44
2018-03-30T04:45:18.932Z,3.45
2018-03-30T04:47:49.857Z,3.43
2018-03-30T04:50:20.862Z,3.40
2018-03-30T04:52:51.394Z,3.36
2018-03-30T04:55:22.448Z,3.36
2018-03-30T04:57:53.450Z,3.34
2018-03-30T05:00:24.497Z,3.37
2018-03-30T05:02:55.457Z,3.38
2018-03-30T05:05:26.516Z,3.39
2018-03-30T05:07:57.263Z,3.41
2018-03-30T05:10:27.827Z,3.41
2018-03-30T05:12:58.531Z,3.43
2018-03-30T05:15:29.609Z,3.45
2018-03-30T05:18:00.577Z,3.48
2018-03-30T05:20:32.031Z,3.50
2018-03-30T05:23:02.769Z,3.53
2018-03-30T05:25:33.843Z,3.54
2018-03-30T05:28:04.689Z,3.59
2018-03-30T05:30:35.768Z,3.63
2018-03-30T05:33:06.778Z,3.68
2018-03-30T05:35:37.774Z,3.70
2018-03-30T05:38:08.796Z,3.78
2018-03-30T05:40:39.872Z,3.83
2018-03-30T05:43:10.346Z,3.91
2018-03-30T05:45:41.135Z,3.96
2018-03-30T05:48:11.596Z,4.03
2018-03-30T05:50:42.672Z,4.10
2018-03-30T05:53:13.723Z,4.16
2018-03-30T05:55:44.803Z,4.24
2018-03-30T05:58:15.643Z,4.31
2018-03-30T06:00:46.691Z,4.37
2018-03-30T06:03:17.674Z,4.42
2018-03-30T06:05:48.732Z,4.47
2018-03-30T06:08:19.728Z,4.61
2018-03-30T06:10:51.758Z,4.69
2018-03-30T06:13:22.467Z,4.78
2018-03-30T06:15:53.259Z,4.80
2018-03-30T06:18:23.789Z,4.88
2018-03-30T06:20:54.919Z,4.90
2018-03-30T06:23:25.706Z,4.99
2018-03-30T06:25:57.931Z,5.11
2018-03-30T06:28:28.303Z,5.15
2018-03-30T06:30:58.857Z,5.20
2018-03-30T06:33:29.851Z,5.22
2018-03-30T06:36:00.925Z,5.28
2018-03-30T06:38:31.968Z,5.33
2018-03-30T06:41:02.467Z,5.38
2018-03-30T06:43:33.131Z,5.46
2018-03-30T06:46:03.987Z,5.57
2018-03-30T06:48:34.705Z,5.65
2018-03-30T06:51:05.806Z,5.77
2018-03-30T06:53:36.698Z,5.84
2018-03-30T06:56:07.413Z,5.91
2018-03-30T06:58:38.104Z,5.97
2018-03-30T07:01:09.038Z,6.05
2018-03-30T07:03:39.860Z,6.10
2018-03-30T07:06:10.768Z,6.24
2018-03-30T07:08:41.804Z,6.36
2018-03-30T07:11:12.951Z,6.41
2018-03-30T07:13:45.956Z,6.49
2018-03-30T07:16:16.032Z,6.58
2018-03-30T07:18:46.564Z,6.74
2018-03-30T07:21:17.459Z,6.95
2018-03-30T07:23:48.157Z,6.96
2018-03-30T07:26:18.983Z,7.16
2018-03-30T07:28:49.934Z,7.19
2018-03-30T07:31:21.539Z,7.23
2018-03-30T07:33:51.731Z,7.29
2018-03-30T07:36:22.708Z,7.33
2018-03-30T07:38:53.536Z,7.43
2018-03-30T07:41:24.356Z,7.60
2018-03-30T07:43:55.274Z,7.75
2018-03-30T07:46:25.976Z,7.91
2018-03-30T07:48:56.940Z,8.08
2018-03-30T07:51:27.900Z,8.21
2018-03-30T07:53:59.577Z,8.31
2018-03-30T07:56:30.557Z,8.41
2018-03-30T07:59:01.381Z,8.54
2018-03-30T08:01:32.344Z,8.60
2018-03-30T08:04:02.788Z,8.72
2018-03-30T08:06:33.544Z,8.94
2018-03-30T08:09:03.852Z,9.08
2018-03-30T08:11:34.787Z,9.19
2018-03-30T08:14:05.723Z,9.30
2018-03-30T08:16:36.715Z,9.49
2018-03-30T08:19:07.553Z,9.56
2018-03-30T08:21:38.279Z,9.66
2018-03-30T08:24:08.824Z,9.83
2018-03-30T08:26:39.813Z,9.91
2018-03-30T08:29:11.134Z,10.13
2018-03-30T08:31:42.117Z,10.29
2018-03-30T08:34:13.354Z,10.46
2018-03-30T08:36:44.830Z,10.53
2018-03-30T08:39:15.709Z,10.60
2018-03-30T08:41:47.413Z,10.73
2018-03-30T08:44:17.071Z,10.94
2018-03-30T08:46:47.910Z,11.05
2018-03-30T08:49:18.764Z,11.17
2018-03-30T08:51:49.537Z,11.47
2018-03-30T08:54:20.549Z,11.64
2018-03-30T08:56:51.600Z,11.83
2018-03-30T08:59:22.280Z,11.89
2018-03-30T09:01:52.917Z,12.00
2018-03-30T09:04:25.448Z,12.03
2018-03-30T09:06:56.288Z,12.15
2018-03-30T09:09:26.364Z,12.25
2018-03-30T09:11:57.729Z,12.38
2018-03-30T09:14:28.072Z,12.44
2018-03-30T09:16:59.885Z,12.53
2018-03-30T09:19:30.433Z,12.48
2018-03-30T09:22:00.331Z,12.70
2018-03-30T09:24:30.138Z,12.91
2018-03-30T09:27:01.112Z,13.11
2018-03-30T09:29:31.088Z,13.27
2018-03-30T09:32:01.998Z,13.27
2018-03-30T09:34:32.575Z,13.13
2018-03-30T09:37:03.249Z,13.05
2018-03-30T09:39:33.040Z,13.09
2018-03-30T09:42:03.866Z,13.16
2018-03-30T09:44:34.686Z,13.35
2018-03-30T09:47:05.869Z,13.34
2018-03-30T09:49:36.774Z,13.35
2018-03-30T09:52:07.784Z,13.49
2018-03-30T09:54:38.828Z,13.39
2018-03-30T09:57:09.804Z,13.37
2018-03-30T09:59:40.769Z,13.21
2018-03-30T10:02:11.697Z,13.08
2018-03-30T10:04:45.395Z,12.97
2018-03-30T10:07:14.575Z,12.95
2018-03-30T10:09:45.305Z,12.97
2018-03-30T10:12:15.860Z,13.03
2018-03-30T10:14:46.710Z,13.08
2018-03-30T10:17:17.794Z,13.30
2018-03-30T10:19:48.711Z,13.38
2018-03-30T10:22:19.417Z,13.48
2018-03-30T10:24:50.109Z,13.65
2018-03-30T10:27:20.884Z,14.00
2018-03-30T10:29:51.730Z,14.26
2018-03-30T10:32:22.942Z,14.67
2018-03-30T10:34:53.792Z,14.95
2018-03-30T10:37:24.804Z,14.98
2018-03-30T10:39:55.389Z,15.13
2018-03-30T10:42:26.134Z,15.21
2018-03-30T10:44:57.181Z,15.44
2018-03-30T10:47:27.083Z,15.69
2018-03-30T10:49:57.887Z,15.68
2018-03-30T10:52:28.520Z,15.73
2018-03-30T10:54:59.324Z,15.85
2018-03-30T10:57:29.836Z,15.79
2018-03-30T11:00:00.913Z,15.81
2018-03-30T11:02:31.696Z,15.87
2018-03-30T11:05:02.761Z,15.79
2018-03-30T11:07:33.738Z,16.03
2018-03-30T11:10:04.881Z,16.07
2018-03-30T11:12:35.709Z,16.36
2018-03-30T11:15:06.786Z,16.18
2018-03-30T11:17:37.680Z,16.41
2018-03-30T11:20:13.784Z,16.56
2018-03-30T11:22:42.757Z,16.91
2018-03-30T11:25:11.736Z,16.86
2018-03-30T11:27:42.443Z,17.17
2018-03-30T11:30:14.069Z,17.37
2018-03-30T11:32:44.208Z,17.25
2018-03-30T11:35:14.781Z,17.16
2018-03-30T11:37:45.816Z,17.13
2018-03-30T11:40:18.593Z,17.22
2018-03-30T11:42:48.308Z,17.37
2018-03-30T11:45:18.828Z,17.73
2018-03-30T11:47:49.803Z,17.81
2018-03-30T11:50:20.819Z,17.87
2018-03-30T11:52:51.750Z,17.96
2018-03-30T11:55:22.885Z,18.16
2018-03-30T11:57:53.716Z,18.33
2018-03-30T12:00:24.449Z,18.57
2018-03-30T12:02:55.184Z,18.58
2018-03-30T12:05:25.791Z,18.59
2018-03-30T12:07:56.830Z,18.61
2018-03-30T12:10:27.784Z,18.69
2018-03-30T12:12:58.796Z,18.91
2018-03-30T12:15:29.820Z,19.06
2018-03-30T12:18:00.693Z,18.93
2018-03-30T12:20:31.384Z,18.72
2018-03-30T12:23:02.075Z,18.57
2018-03-30T12:25:32.745Z,18.54
2018-03-30T12:28:03.856Z,18.22
2018-03-30T12:30:34.827Z,18.25
2018-03-30T12:33:05.522Z,17.98
2018-03-30T12:35:36.556Z,18.08
2018-03-30T12:38:07.294Z,18.15
2018-03-30T12:40:37.751Z,17.93
2018-03-30T12:43:08.839Z,18.01
2018-03-30T12:45:39.713Z,18.09
2018-03-30T12:48:10.830Z,18.16
2018-03-30T12:50:42.023Z,18.27
2018-03-30T12:53:12.916Z,18.29
2018-03-30T12:55:43.692Z,18.31
2018-03-30T12:58:14.444Z,18.35
2018-03-30T13:00:45.080Z,18.18
2018-03-30T13:03:15.862Z,18.32
2018-03-30T13:05:46.752Z,18.40
2018-03-30T13:08:17.808Z,18.29
2018-03-30T13:10:48.694Z,18.09
2018-03-30T13:13:19.734Z,18.07
2018-03-30T13:15:50.728Z,18.07
2018-03-30T13:18:21.784Z,18.04
2018-03-30T13:20:52.722Z,18.08
2018-03-30T13:23:23.795Z,18.07
2018-03-30T13:25:54.671Z,17.95
2018-03-30T13:28:25.793Z,17.89
2018-03-30T13:30:56.812Z,17.90
2018-03-30T13:33:27.888Z,17.91
2018-03-30T13:35:58.373Z,17.87
2018-03-30T13:38:28.901Z,17.89
2018-03-30T13:40:59.697Z,17.81
2018-03-30T13:43:30.751Z,17.72
2018-03-30T13:46:01.873Z,17.59
2018-03-30T13:48:32.782Z,17.76
2018-03-30T13:51:17.980Z,18.03
2018-03-30T13:54:01.631Z,18.01
2018-03-30T13:56:31.644Z,18.21
2018-03-30T13:59:00.069Z,18.09
2018-03-30T14:01:29.309Z,18.06
2018-03-30T14:04:00.850Z,18.03
2018-03-30T14:09:31.885Z,18.54
2018-03-30T14:12:10.019Z,18.59
2018-03-30T14:14:38.420Z,18.58
2018-03-30T14:20:07.516Z,18.40
2018-03-30T14:22:41.895Z,18.30
2018-03-30T14:25:12.724Z,18.24
2018-03-30T14:27:41.136Z,18.05
2018-03-30T14:30:13.229Z,17.73
2018-03-30T14:32:58.466Z,17.71
2018-03-30T14:35:39.200Z,17.48
2018-03-30T14:38:08.548Z,17.31
2018-03-30T14:40:48.860Z,17.32
2018-03-30T14:43:22.039Z,17.37
2018-03-30T14:46:05.402Z,17.14
2018-03-30T14:48:36.732Z,16.83
2018-03-30T14:51:13.840Z,16.83
2018-03-30T14:53:45.684Z,16.47
2018-03-30T14:56:17.222Z,16.39
2018-03-30T14:58:49.243Z,16.58
2018-03-30T15:04:38.981Z,16.59
2018-03-30T15:07:16.860Z,16.36
2018-03-30T15:09:52.794Z,16.36
2018-03-30T15:12:27.997Z,16.03
2018-03-30T15:17:57.435Z,15.63
2018-03-30T15:20:29.792Z,15.73
2018-03-30T15:23:15.774Z,15.53
2018-03-30T15:28:47.747Z,15.53
2018-03-30T15:34:21.495Z,15.30
2018-03-30T15:37:01.559Z,15.23
2018-03-30T15:39:30.057Z,15.08
2018-03-30T15:42:01.295Z,14.87
2018-03-30T15:44:30.941Z,14.98
2018-03-30T15:47:02.458Z,15.12
2018-03-30T15:49:32.125Z,14.93
2018-03-30T15:52:03.608Z,14.96
2018-03-30T15:54:31.205Z,14.87
2018-03-30T15:57:00.280Z,14.82
2018-03-30T15:59:29.246Z,14.82
2018-03-30T16:01:58.108Z,14.64
2018-03-30T16:04:26.571Z,14.56
2018-03-30T16:06:54.955Z,14.50
2018-03-30T16:09:28.095Z,14.51
2018-03-30T16:11:59.433Z,14.51
2018-03-30T16:14:27.863Z,14.57
2018-03-30T16:16:56.852Z,14.58
2018-03-30T16:19:26.299Z,14.59
2018-03-30T16:21:55.770Z,14.49
2018-03-30T16:24:25.277Z,14.55
2018-03-30T16:26:52.866Z,14.39
2018-03-30T16:29:20.681Z,14.32
2018-03-30T16:31:48.276Z,14.39
2018-03-30T16:34:15.870Z,14.34
2018-03-30T16:36:43.523Z,14.37
2018-03-30T16:39:11.356Z,14.35
2018-03-30T16:41:39.287Z,14.32
2018-03-30T16:44:07.245Z,14.33
2018-03-30T16:46:35.134Z,14.33
2018-03-30T16:49:02.752Z,14.28
2018-03-30T16:51:30.417Z,14.20
2018-03-30T16:53:58.333Z,14.09
2018-03-30T16:56:26.235Z,14.01
2018-03-30T16:58:55.771Z,14.02
2018-03-30T17:01:23.388Z,14.06
2018-03-30T17:03:51.248Z,14.17
2018-03-30T17:06:19.283Z,14.18
2018-03-30T17:08:47.343Z,13.99
2018-03-30T17:11:15.284Z,13.99
2018-03-30T17:13:43.373Z,14.01
2018-03-30T17:16:11.311Z,13.90
2018-03-30T17:18:39.247Z,13.87
2018-03-30T17:21:07.240Z,13.84
2018-03-30T17:23:35.159Z,13.83
2018-03-30T17:26:02.772Z,13.80
2018-03-30T17:28:30.445Z,13.72
2018-03-30T17:30:58.356Z,13.73
2018-03-30T17:33:26.187Z,13.68
2018-03-30T17:35:54.178Z,13.62
2018-03-30T17:38:21.799Z,13.53
2018-03-30T17:40:49.399Z,13.43
2018-03-30T17:43:17.342Z,13.43
2018-03-30T17:45:45.238Z,13.37
2018-03-30T17:48:13.144Z,13.31
2018-03-30T17:50:41.136Z,13.30
2018-03-30T17:53:09.037Z,13.32
2018-03-30T17:55:36.662Z,13.31
2018-03-30T17:58:04.323Z,13.27
2018-03-30T18:00:33.080Z,13.23
2018-03-30T18:03:00.771Z,13.14
2018-03-30T18:05:28.689Z,13.18
2018-03-30T18:07:56.312Z,13.10
2018-03-30T18:10:24.012Z,13.01
2018-03-30T18:12:51.706Z,12.93
2018-03-30T18:15:19.354Z,12.89
2018-03-30T18:17:47.483Z,12.75
2018-03-30T18:20:15.251Z,12.85
2018-03-30T18:22:42.849Z,12.78
2018-03-30T18:25:11.971Z,12.57
2018-03-30T18:27:41.371Z,12.64
2018-03-30T18:30:08.971Z,12.52
2018-03-30T18:32:36.744Z,12.48
2018-03-30T18:35:04.471Z,12.47
2018-03-30T18:37:32.276Z,12.40
2018-03-30T18:39:59.892Z,12.25
2018-03-30T18:42:27.573Z,12.07
2018-03-30T18:44:55.342Z,12.15
2018-03-30T18:47:23.370Z,12.15
2018-03-30T18:49:51.338Z,12.22
2018-03-30T18:52:19.340Z,12.28
2018-03-30T18:54:47.252Z,12.28
2018-03-30T18:57:15.270Z,12.08
2018-03-30T18:59:43.192Z,12.10
2018-03-30T19:02:10.800Z,12.04
2018-03-30T19:04:38.468Z,12.16
2018-03-30T19:07:06.346Z,12.11
2018-03-30T19:09:34.269Z,12.01
2018-03-30T19:12:02.258Z,11.78
2018-03-30T19:14:30.152Z,11.77
2018-03-30T19:16:57.819Z,11.88
2018-03-30T19:19:25.481Z,11.69
2018-03-30T19:21:53.373Z,11.60
2018-03-30T19:24:21.280Z,11.47
2018-03-30T19:26:49.247Z,11.58
2018-03-30T19:29:17.238Z,11.58
2018-03-30T19:31:45.165Z,11.61
2018-03-30T19:34:12.894Z,11.61
2018-03-30T19:36:40.539Z,11.49
2018-03-30T19:39:08.270Z,11.58
2018-03-30T19:41:36.289Z,11.54
2018-03-30T19:44:04.226Z,11.61
2018-03-30T19:46:36.536Z,11.60
2018-03-30T19:49:04.371Z,11.63
2018-03-30T19:51:32.310Z,11.57
2018-03-30T19:54:00.245Z,11.65
2018-03-30T19:56:28.255Z,11.57
2018-03-30T19:58:56.153Z,11.59
2018-03-30T20:01:24.058Z,11.58
2018-03-30T20:03:51.756Z,11.54
2018-03-30T20:06:19.365Z,11.55
2018-03-30T20:08:47.232Z,11.60
2018-03-30T20:11:15.310Z,11.54
2018-03-30T20:13:43.220Z,11.62
2018-03-30T20:16:11.189Z,11.62
2018-03-30T20:18:43.907Z,11.56
2018-03-30T20:21:15.178Z,11.56
2018-03-30T20:23:43.141Z,11.58
2018-03-30T20:26:10.760Z,11.54
2018-03-30T20:28:38.848Z,11.60
2018-03-30T20:31:06.531Z,11.67
2018-03-30T20:33:34.573Z,11.66
2018-03-30T20:36:03.875Z,11.69
2018-03-30T20:38:33.439Z,11.68
2018-03-30T20:41:02.759Z,11.67
2018-03-30T20:43:32.314Z,11.64
2018-03-30T20:46:03.589Z,11.67
2018-03-30T20:48:33.162Z,11.65
2018-03-30T20:51:01.114Z,11.60
2018-03-30T20:53:28.844Z,11.57
2018-03-30T20:55:56.463Z,11.58
2018-03-30T20:58:24.384Z,11.54
2018-03-30T21:00:52.450Z,11.63
2018-03-30T21:03:20.264Z,11.63
2018-03-30T21:05:48.180Z,11.60
2018-03-30T21:08:15.862Z,11.63
2018-03-30T21:10:43.469Z,11.68
2018-03-30T21:13:11.379Z,11.65
2018-03-30T21:15:39.347Z,11.70
2018-03-30T21:18:07.313Z,11.66
2018-03-30T21:20:35.242Z,11.66
2018-03-30T21:23:03.242Z,11.66
2018-03-30T21:25:31.172Z,11.62
2018-03-30T21:27:59.086Z,11.63
2018-03-30T21:30:26.776Z,11.61
2018-03-30T21:32:54.424Z,11.54
2018-03-30T21:35:22.240Z,11.62
2018-03-30T21:37:50.194Z,11.60
2018-03-30T21:40:17.808Z,11.67
2018-03-30T21:42:45.396Z,11.56
2018-03-30T21:45:13.422Z,11.52
2018-03-30T21:47:41.328Z,11.53
2018-03-30T21:50:09.242Z,11.63
2018-03-30T21:52:37.232Z,11.59
2018-03-30T21:55:05.144Z,11.57
2018-03-30T21:57:32.745Z,11.59
2018-03-30T22:00:00.420Z,11.51
2018-03-30T22:02:28.303Z,11.50
2018-03-30T22:04:56.233Z,11.57
2018-03-30T22:07:24.556Z,11.58
2018-03-30T22:09:52.255Z,11.59
2018-03-30T22:12:20.236Z,11.46
2018-03-30T22:14:48.188Z,11.46
2018-03-30T22:17:16.097Z,11.47
2018-03-30T22:19:43.703Z,11.57
2018-03-30T22:22:11.359Z,11.56
2018-03-30T22:24:39.247Z,11.56
2018-03-30T22:27:07.154Z,11.54
2018-03-30T22:29:35.102Z,11.50
2018-03-30T22:32:02.728Z,11.54
2018-03-30T22:34:30.549Z,11.53
2018-03-30T22:36:58.714Z,11.48
2018-03-30T22:39:26.720Z,11.50
2018-03-30T22:41:54.736Z,11.50
2018-03-30T22:44:22.784Z,11.50
2018-03-30T22:46:50.836Z,11.44
2018-03-30T22:49:19.125Z,11.45
2018-03-30T22:51:49.384Z,11.48
2018-03-30T22:54:19.117Z,11.50
2018-03-30T22:56:48.650Z,11.46
2018-03-30T22:59:18.252Z,11.36
2018-03-30T23:01:47.915Z,11.44
2018-03-30T23:04:15.813Z,11.42
2018-03-30T23:06:43.780Z,11.38
2018-03-30T23:09:11.372Z,11.44
2018-03-30T23:11:39.293Z,11.41
2018-03-30T23:14:07.337Z,11.43
2018-03-30T23:16:35.233Z,11.39
2018-03-30T23:19:03.125Z,11.28
2018-03-30T23:21:30.854Z,11.32
2018-03-30T23:23:58.516Z,11.35
2018-03-30T23:26:26.373Z,11.25
2018-03-30T23:28:54.322Z,11.18
2018-03-30T23:31:22.076Z,11.17
2018-03-30T23:33:49.924Z,11.05
2018-03-30T23:36:17.445Z,10.97
2018-03-30T23:38:45.101Z,11.01
2018-03-30T23:41:12.707Z,10.93
2018-03-30T23:43:40.383Z,10.98
2018-03-30T23:46:08.267Z,10.96
2018-03-30T23:48:36.183Z,10.97
2018-03-30T23:51:04.383Z,10.95
2018-03-30T23:53:32.213Z,10.91
2018-03-30T23:56:00.103Z,10.83
2018-03-30T23:58:27.772Z,10.86
